sensor_id;sensor_type;location;lat;lon;timestamp;temperature;humidity
51867;DHT22;52862;52.504;13.480;2024-01-06T00:02:09;2.40;99.90
51867;DHT22;52862;52.504;13.480;2024-01-06T00:04:36;2.40;99.90
51867;DHT22;52862;52.504;13.480;2024-01-06T00:07:03;2.40;99.90
51867;DHT22;52862;52.504;13.480;2024-01-06T00:09:30;2.40;99.90
51867;DHT22;52862;52.504;13.480;2024-01-06T00:11:57;2.40;99.90
51867;DHT22;52862;52.504;13.480;2024-01-06T00:14:24;2.40;99.90
51867;DHT22;52862;52.504;13.480;2024-01-06T00:16:51;2.10;99.90
51867;DHT22;52862;52.504;13.480;2024-01-06T00:19:18;2.30;99.90
51867;DHT22;52862;52.504;13.480;2024-01-06T00:21:45;2.40;99.90
51867;DHT22;52862;52.504;13.480;2024-01-06T00:24:12;2.40;99.90
51867;DHT22;52862;52.504;13.480;2024-01-06T00:26:39;2.50;99.90
51867;DHT22;52862;52.504;13.480;2024-01-06T00:29:06;2.50;99.90
51867;DHT22;52862;52.504;13.480;2024-01-06T00:31:32;2.10;99.90
51867;DHT22;52862;52.504;13.480;2024-01-06T00:34:00;2.40;99.90
51867;DHT22;52862;52.504;13.480;2024-01-06T00:36:28;2.30;99.90
51867;DHT22;52862;52.504;13.480;2024-01-06T00:38:54;2.30;99.90
51867;DHT22;52862;52.504;13.480;2024-01-06T00:41:21;2.30;99.90
51867;DHT22;52862;52.504;13.480;2024-01-06T00:43:48;2.30;99.90
51867;DHT22;52862;52.504;13.480;2024-01-06T00:46:15;3.20;99.90
51867;DHT22;52862;52.504;13.480;2024-01-06T00:48:41;2.30;99.90
51867;DHT22;52862;52.504;13.480;2024-01-06T00:51:08;2.20;99.90
51867;DHT22;52862;52.504;13.480;2024-01-06T00:53:36;2.30;99.90
51867;DHT22;52862;52.504;13.480;2024-01-06T00:56:03;2.30;99.90
51867;DHT22;52862;52.504;13.480;2024-01-06T00:58:30;2.00;99.90
51867;DHT22;52862;52.504;13.480;2024-01-06T01:00:57;2.30;99.90
51867;DHT22;52862;52.504;13.480;2024-01-06T01:03:24;2.30;99.90
51867;DHT22;52862;52.504;13.480;2024-01-06T01:05:51;2.30;99.90
51867;DHT22;52862;52.504;13.480;2024-01-06T01:08:18;2.30;99.90
51867;DHT22;52862;52.504;13.480;2024-01-06T01:10:45;2.30;99.90
51867;DHT22;52862;52.504;13.480;2024-01-06T01:13:12;2.30;99.90
51867;DHT22;52862;52.504;13.480;2024-01-06T01:15:39;2.30;99.90
51867;DHT22;52862;52.504;13.480;2024-01-06T01:18:06;2.30;99.90
51867;DHT22;52862;52.504;13.480;2024-01-06T01:20:33;2.30;99.90
51867;DHT22;52862;52.504;13.480;2024-01-06T01:23:00;2.30;99.90
51867;DHT22;52862;52.504;13.480;2024-01-06T01:25:26;2.30;99.90
51867;DHT22;52862;52.504;13.480;2024-01-06T01:27:54;2.30;99.90
51867;DHT22;52862;52.504;13.480;2024-01-06T01:30:21;2.30;99.90
51867;DHT22;52862;52.504;13.480;2024-01-06T01:32:48;2.30;99.90
51867;DHT22;52862;52.504;13.480;2024-01-06T01:35:15;2.30;99.90
51867;DHT22;52862;52.504;13.480;2024-01-06T01:37:42;2.20;99.90
51867;DHT22;52862;52.504;13.480;2024-01-06T01:40:10;2.20;99.90
51867;DHT22;52862;52.504;13.480;2024-01-06T01:42:37;2.30;99.90
51867;DHT22;52862;52.504;13.480;2024-01-06T01:45:05;2.30;99.90
51867;DHT22;52862;52.504;13.480;2024-01-06T01:47:32;2.30;99.90
51867;DHT22;52862;52.504;13.480;2024-01-06T01:49:59;2.30;99.90
51867;DHT22;52862;52.504;13.480;2024-01-06T01:52:28;2.30;99.90
51867;DHT22;52862;52.504;13.480;2024-01-06T01:54:54;2.30;99.90
51867;DHT22;52862;52.504;13.480;2024-01-06T01:57:23;2.30;99.90
51867;DHT22;52862;52.504;13.480;2024-01-06T01:59:52;2.20;99.90
51867;DHT22;52862;52.504;13.480;2024-01-06T02:02:20;2.30;99.90
51867;DHT22;52862;52.504;13.480;2024-01-06T02:04:47;2.30;99.90
51867;DHT22;52862;52.504;13.480;2024-01-06T02:07:14;2.30;99.90
51867;DHT22;52862;52.504;13.480;2024-01-06T02:09:42;2.30;99.90
51867;DHT22;52862;52.504;13.480;2024-01-06T02:12:09;2.30;99.90
51867;DHT22;52862;52.504;13.480;2024-01-06T02:14:36;2.30;99.90
51867;DHT22;52862;52.504;13.480;2024-01-06T02:17:03;2.20;99.90
51867;DHT22;52862;52.504;13.480;2024-01-06T02:19:31;2.20;99.90
51867;DHT22;52862;52.504;13.480;2024-01-06T02:21:58;2.10;99.90
51867;DHT22;52862;52.504;13.480;2024-01-06T02:24:25;2.20;99.90
51867;DHT22;52862;52.504;13.480;2024-01-06T02:26:52;2.10;99.90
51867;DHT22;52862;52.504;13.480;2024-01-06T02:29:19;2.20;99.90
51867;DHT22;52862;52.504;13.480;2024-01-06T02:31:45;2.40;99.90
51867;DHT22;52862;52.504;13.480;2024-01-06T02:34:13;2.10;99.90
51867;DHT22;52862;52.504;13.480;2024-01-06T02:36:40;2.20;99.90
51867;DHT22;52862;52.504;13.480;2024-01-06T02:39:07;2.10;99.90
51867;DHT22;52862;52.504;13.480;2024-01-06T02:41:34;2.10;99.90
51867;DHT22;52862;52.504;13.480;2024-01-06T02:44:02;2.20;99.90
51867;DHT22;52862;52.504;13.480;2024-01-06T02:46:29;2.10;99.90
51867;DHT22;52862;52.504;13.480;2024-01-06T02:48:56;2.10;99.90
51867;DHT22;52862;52.504;13.480;2024-01-06T02:51:23;2.10;99.90
51867;DHT22;52862;52.504;13.480;2024-01-06T02:53:50;2.20;99.90
51867;DHT22;52862;52.504;13.480;2024-01-06T02:56:17;2.20;99.90
51867;DHT22;52862;52.504;13.480;2024-01-06T02:58:44;2.20;99.90
51867;DHT22;52862;52.504;13.480;2024-01-06T03:01:11;2.20;99.90
51867;DHT22;52862;52.504;13.480;2024-01-06T03:03:38;2.20;99.90
51867;DHT22;52862;52.504;13.480;2024-01-06T03:06:05;2.20;99.90
51867;DHT22;52862;52.504;13.480;2024-01-06T03:08:32;2.20;99.90
51867;DHT22;52862;52.504;13.480;2024-01-06T03:11:00;2.20;99.90
51867;DHT22;52862;52.504;13.480;2024-01-06T03:13:29;2.20;99.90
51867;DHT22;52862;52.504;13.480;2024-01-06T03:15:55;2.20;99.90
51867;DHT22;52862;52.504;13.480;2024-01-06T03:18:22;2.20;99.90
51867;DHT22;52862;52.504;13.480;2024-01-06T03:20:49;2.20;99.90
51867;DHT22;52862;52.504;13.480;2024-01-06T03:23:16;2.20;99.90
51867;DHT22;52862;52.504;13.480;2024-01-06T03:25:43;2.20;99.90
51867;DHT22;52862;52.504;13.480;2024-01-06T03:28:10;2.20;99.90
51867;DHT22;52862;52.504;13.480;2024-01-06T03:30:37;2.20;99.90
51867;DHT22;52862;52.504;13.480;2024-01-06T03:33:05;2.20;99.90
51867;DHT22;52862;52.504;13.480;2024-01-06T03:35:32;2.20;99.90
51867;DHT22;52862;52.504;13.480;2024-01-06T03:37:58;2.20;99.90
51867;DHT22;52862;52.504;13.480;2024-01-06T03:40:25;2.20;99.90
51867;DHT22;52862;52.504;13.480;2024-01-06T03:42:52;2.20;99.90
51867;DHT22;52862;52.504;13.480;2024-01-06T03:45:20;2.20;99.90
51867;DHT22;52862;52.504;13.480;2024-01-06T03:47:47;2.20;99.90
51867;DHT22;52862;52.504;13.480;2024-01-06T03:50:14;2.20;99.90
51867;DHT22;52862;52.504;13.480;2024-01-06T03:52:41;2.20;99.90
51867;DHT22;52862;52.504;13.480;2024-01-06T03:55:08;2.30;99.90
51867;DHT22;52862;52.504;13.480;2024-01-06T03:57:35;2.20;99.90
51867;DHT22;52862;52.504;13.480;2024-01-06T04:00:03;2.10;99.90
51867;DHT22;52862;52.504;13.480;2024-01-06T04:02:35;2.10;99.90
51867;DHT22;52862;52.504;13.480;2024-01-06T04:05:03;2.10;99.90
51867;DHT22;52862;52.504;13.480;2024-01-06T04:07:31;2.10;99.90
51867;DHT22;52862;52.504;13.480;2024-01-06T04:09:58;2.10;99.90
51867;DHT22;52862;52.504;13.480;2024-01-06T04:12:25;2.20;99.90
51867;DHT22;52862;52.504;13.480;2024-01-06T04:14:51;2.20;99.90
51867;DHT22;52862;52.504;13.480;2024-01-06T04:17:19;2.30;99.90
51867;DHT22;52862;52.504;13.480;2024-01-06T04:19:46;2.10;99.90
51867;DHT22;52862;52.504;13.480;2024-01-06T04:22:13;2.10;99.90
51867;DHT22;52862;52.504;13.480;2024-01-06T04:24:40;2.30;99.90
51867;DHT22;52862;52.504;13.480;2024-01-06T04:27:07;2.10;99.90
51867;DHT22;52862;52.504;13.480;2024-01-06T04:29:34;2.10;99.90
51867;DHT22;52862;52.504;13.480;2024-01-06T04:32:01;2.10;99.90
51867;DHT22;52862;52.504;13.480;2024-01-06T04:34:28;2.10;99.90
51867;DHT22;52862;52.504;13.480;2024-01-06T04:36:54;2.10;99.90
51867;DHT22;52862;52.504;13.480;2024-01-06T04:39:22;2.10;99.90
51867;DHT22;52862;52.504;13.480;2024-01-06T04:41:49;2.10;99.90
51867;DHT22;52862;52.504;13.480;2024-01-06T04:44:16;2.20;99.90
51867;DHT22;52862;52.504;13.480;2024-01-06T04:46:42;2.30;99.90
51867;DHT22;52862;52.504;13.480;2024-01-06T04:49:10;2.20;99.90
51867;DHT22;52862;52.504;13.480;2024-01-06T04:51:37;2.20;99.90
51867;DHT22;52862;52.504;13.480;2024-01-06T04:54:04;2.20;99.90
51867;DHT22;52862;52.504;13.480;2024-01-06T04:56:31;2.10;99.90
51867;DHT22;52862;52.504;13.480;2024-01-06T04:59:02;2.10;99.90
51867;DHT22;52862;52.504;13.480;2024-01-06T05:01:29;2.10;99.90
51867;DHT22;52862;52.504;13.480;2024-01-06T05:03:56;2.20;99.90
51867;DHT22;52862;52.504;13.480;2024-01-06T05:06:23;2.20;99.90
51867;DHT22;52862;52.504;13.480;2024-01-06T05:08:50;1.80;99.90
51867;DHT22;52862;52.504;13.480;2024-01-06T05:11:17;2.10;99.90
51867;DHT22;52862;52.504;13.480;2024-01-06T05:13:44;2.10;99.90
51867;DHT22;52862;52.504;13.480;2024-01-06T05:16:11;2.10;99.90
51867;DHT22;52862;52.504;13.480;2024-01-06T05:18:38;2.10;99.90
51867;DHT22;52862;52.504;13.480;2024-01-06T05:21:05;0.60;99.90
51867;DHT22;52862;52.504;13.480;2024-01-06T05:23:32;2.10;99.90
51867;DHT22;52862;52.504;13.480;2024-01-06T05:25:58;2.10;99.90
51867;DHT22;52862;52.504;13.480;2024-01-06T05:28:25;2.00;99.90
51867;DHT22;52862;52.504;13.480;2024-01-06T05:30:53;2.00;99.90
51867;DHT22;52862;52.504;13.480;2024-01-06T05:33:19;2.00;99.90
51867;DHT22;52862;52.504;13.480;2024-01-06T05:35:46;2.00;99.90
51867;DHT22;52862;52.504;13.480;2024-01-06T05:38:13;2.00;99.90
51867;DHT22;52862;52.504;13.480;2024-01-06T05:40:40;1.90;99.90
51867;DHT22;52862;52.504;13.480;2024-01-06T05:43:07;1.90;99.90
51867;DHT22;52862;52.504;13.480;2024-01-06T05:45:33;1.90;99.90
51867;DHT22;52862;52.504;13.480;2024-01-06T05:48:01;1.90;99.90
51867;DHT22;52862;52.504;13.480;2024-01-06T05:50:28;1.90;99.90
51867;DHT22;52862;52.504;13.480;2024-01-06T05:52:55;1.90;99.90
51867;DHT22;52862;52.504;13.480;2024-01-06T05:55:22;1.90;99.90
51867;DHT22;52862;52.504;13.480;2024-01-06T05:57:49;1.90;99.90
51867;DHT22;52862;52.504;13.480;2024-01-06T06:00:16;1.90;99.90
51867;DHT22;52862;52.504;13.480;2024-01-06T06:02:43;1.90;99.90
51867;DHT22;52862;52.504;13.480;2024-01-06T06:05:11;1.80;99.90
51867;DHT22;52862;52.504;13.480;2024-01-06T06:07:37;1.90;99.90
51867;DHT22;52862;52.504;13.480;2024-01-06T06:10:07;1.90;99.90
51867;DHT22;52862;52.504;13.480;2024-01-06T06:12:34;1.90;99.90
51867;DHT22;52862;52.504;13.480;2024-01-06T06:15:01;1.90;99.90
51867;DHT22;52862;52.504;13.480;2024-01-06T06:17:29;1.80;99.90
51867;DHT22;52862;52.504;13.480;2024-01-06T06:19:56;1.70;99.90
51867;DHT22;52862;52.504;13.480;2024-01-06T06:22:24;1.70;99.90
51867;DHT22;52862;52.504;13.480;2024-01-06T06:24:52;1.70;99.90
51867;DHT22;52862;52.504;13.480;2024-01-06T06:27:19;1.60;99.90
51867;DHT22;52862;52.504;13.480;2024-01-06T06:29:46;1.40;99.90
51867;DHT22;52862;52.504;13.480;2024-01-06T06:32:13;1.50;99.90
51867;DHT22;52862;52.504;13.480;2024-01-06T06:34:40;1.40;99.90
51867;DHT22;52862;52.504;13.480;2024-01-06T06:37:06;1.40;99.90
51867;DHT22;52862;52.504;13.480;2024-01-06T06:39:34;1.50;99.90
51867;DHT22;52862;52.504;13.480;2024-01-06T06:42:01;1.50;99.90
51867;DHT22;52862;52.504;13.480;2024-01-06T06:44:28;1.40;99.90
51867;DHT22;52862;52.504;13.480;2024-01-06T06:46:55;1.40;99.90
51867;DHT22;52862;52.504;13.480;2024-01-06T06:49:22;1.40;99.90
51867;DHT22;52862;52.504;13.480;2024-01-06T06:51:49;1.30;99.90
51867;DHT22;52862;52.504;13.480;2024-01-06T06:54:16;1.30;99.90
51867;DHT22;52862;52.504;13.480;2024-01-06T06:56:44;1.30;99.90
51867;DHT22;52862;52.504;13.480;2024-01-06T06:59:10;1.30;99.90
51867;DHT22;52862;52.504;13.480;2024-01-06T07:01:38;0.10;99.90
51867;DHT22;52862;52.504;13.480;2024-01-06T07:04:04;1.30;99.90
51867;DHT22;52862;52.504;13.480;2024-01-06T07:06:31;1.30;99.90
51867;DHT22;52862;52.504;13.480;2024-01-06T07:08:58;1.40;99.90
51867;DHT22;52862;52.504;13.480;2024-01-06T07:11:26;1.40;99.90
51867;DHT22;52862;52.504;13.480;2024-01-06T07:13:54;1.30;99.90
51867;DHT22;52862;52.504;13.480;2024-01-06T07:16:21;1.40;99.90
51867;DHT22;52862;52.504;13.480;2024-01-06T07:18:47;1.40;99.90
51867;DHT22;52862;52.504;13.480;2024-01-06T07:21:15;1.30;99.90
51867;DHT22;52862;52.504;13.480;2024-01-06T07:23:42;1.40;99.90
51867;DHT22;52862;52.504;13.480;2024-01-06T07:26:09;1.00;99.90
51867;DHT22;52862;52.504;13.480;2024-01-06T07:28:35;1.20;99.90
51867;DHT22;52862;52.504;13.480;2024-01-06T07:31:03;1.10;99.90
51867;DHT22;52862;52.504;13.480;2024-01-06T07:33:31;1.10;99.90
51867;DHT22;52862;52.504;13.480;2024-01-06T07:35:58;1.10;99.90
51867;DHT22;52862;52.504;13.480;2024-01-06T07:38:24;1.40;99.90
51867;DHT22;52862;52.504;13.480;2024-01-06T07:40:51;1.30;99.90
51867;DHT22;52862;52.504;13.480;2024-01-06T07:43:19;1.30;99.90
51867;DHT22;52862;52.504;13.480;2024-01-06T07:45:46;1.20;99.90
51867;DHT22;52862;52.504;13.480;2024-01-06T07:48:13;1.10;99.90
51867;DHT22;52862;52.504;13.480;2024-01-06T07:50:41;1.20;99.90
51867;DHT22;52862;52.504;13.480;2024-01-06T07:53:08;1.20;99.90
51867;DHT22;52862;52.504;13.480;2024-01-06T07:55:35;1.20;99.90
51867;DHT22;52862;52.504;13.480;2024-01-06T07:58:04;1.30;99.90
51867;DHT22;52862;52.504;13.480;2024-01-06T08:00:34;1.30;99.90
51867;DHT22;52862;52.504;13.480;2024-01-06T08:03:01;1.40;99.90
51867;DHT22;52862;52.504;13.480;2024-01-06T08:05:29;1.00;99.90
51867;DHT22;52862;52.504;13.480;2024-01-06T08:07:56;1.30;99.90
51867;DHT22;52862;52.504;13.480;2024-01-06T08:10:22;1.40;99.90
51867;DHT22;52862;52.504;13.480;2024-01-06T08:12:49;1.40;99.90
51867;DHT22;52862;52.504;13.480;2024-01-06T08:15:16;1.30;99.90
51867;DHT22;52862;52.504;13.480;2024-01-06T08:17:43;1.30;99.90
51867;DHT22;52862;52.504;13.480;2024-01-06T08:20:10;1.30;99.90
51867;DHT22;52862;52.504;13.480;2024-01-06T08:22:38;1.30;99.90
51867;DHT22;52862;52.504;13.480;2024-01-06T08:25:06;1.40;99.90
51867;DHT22;52862;52.504;13.480;2024-01-06T08:27:33;1.40;99.90
51867;DHT22;52862;52.504;13.480;2024-01-06T08:30:00;1.30;99.90
51867;DHT22;52862;52.504;13.480;2024-01-06T08:32:27;1.30;99.90
51867;DHT22;52862;52.504;13.480;2024-01-06T08:34:54;1.30;99.90
51867;DHT22;52862;52.504;13.480;2024-01-06T08:37:21;1.20;99.90
51867;DHT22;52862;52.504;13.480;2024-01-06T08:39:48;1.90;99.90
51867;DHT22;52862;52.504;13.480;2024-01-06T08:42:15;1.20;99.90
51867;DHT22;52862;52.504;13.480;2024-01-06T08:44:42;1.20;99.90
51867;DHT22;52862;52.504;13.480;2024-01-06T08:47:09;1.30;99.90
51867;DHT22;52862;52.504;13.480;2024-01-06T08:49:36;1.70;99.90
51867;DHT22;52862;52.504;13.480;2024-01-06T08:52:04;1.40;99.90
51867;DHT22;52862;52.504;13.480;2024-01-06T08:54:31;1.40;99.90
51867;DHT22;52862;52.504;13.480;2024-01-06T08:56:58;1.40;99.90
51867;DHT22;52862;52.504;13.480;2024-01-06T08:59:25;1.30;99.90
51867;DHT22;52862;52.504;13.480;2024-01-06T09:01:52;1.30;99.90
51867;DHT22;52862;52.504;13.480;2024-01-06T09:04:19;1.10;99.90
51867;DHT22;52862;52.504;13.480;2024-01-06T09:06:46;1.30;99.90
51867;DHT22;52862;52.504;13.480;2024-01-06T09:09:13;1.30;99.90
51867;DHT22;52862;52.504;13.480;2024-01-06T09:11:40;1.20;99.90
51867;DHT22;52862;52.504;13.480;2024-01-06T09:14:08;1.20;99.90
51867;DHT22;52862;52.504;13.480;2024-01-06T09:16:36;1.20;99.90
51867;DHT22;52862;52.504;13.480;2024-01-06T09:19:03;1.20;99.90
51867;DHT22;52862;52.504;13.480;2024-01-06T09:21:30;1.20;99.90
51867;DHT22;52862;52.504;13.480;2024-01-06T09:23:57;1.20;99.90
51867;DHT22;52862;52.504;13.480;2024-01-06T09:26:24;1.30;99.90
51867;DHT22;52862;52.504;13.480;2024-01-06T09:28:51;1.30;99.90
51867;DHT22;52862;52.504;13.480;2024-01-06T09:31:18;1.30;99.90
51867;DHT22;52862;52.504;13.480;2024-01-06T09:33:45;1.30;99.90
51867;DHT22;52862;52.504;13.480;2024-01-06T09:36:12;3.40;99.90
51867;DHT22;52862;52.504;13.480;2024-01-06T09:38:40;1.20;99.90
51867;DHT22;52862;52.504;13.480;2024-01-06T09:41:06;1.10;99.90
51867;DHT22;52862;52.504;13.480;2024-01-06T09:43:33;1.10;99.90
51867;DHT22;52862;52.504;13.480;2024-01-06T09:46:06;0.90;99.90
51867;DHT22;52862;52.504;13.480;2024-01-06T09:48:40;1.20;99.90
51867;DHT22;52862;52.504;13.480;2024-01-06T09:51:10;1.20;99.90
51867;DHT22;52862;52.504;13.480;2024-01-06T09:53:42;1.10;99.90
51867;DHT22;52862;52.504;13.480;2024-01-06T09:56:10;1.10;99.90
51867;DHT22;52862;52.504;13.480;2024-01-06T09:58:39;1.00;99.90
51867;DHT22;52862;52.504;13.480;2024-01-06T10:01:06;1.10;99.90
51867;DHT22;52862;52.504;13.480;2024-01-06T10:03:35;1.20;99.90
51867;DHT22;52862;52.504;13.480;2024-01-06T10:06:04;1.20;99.90
51867;DHT22;52862;52.504;13.480;2024-01-06T10:08:31;1.50;99.90
51867;DHT22;52862;52.504;13.480;2024-01-06T10:10:59;1.30;99.90
51867;DHT22;52862;52.504;13.480;2024-01-06T10:13:26;1.20;99.90
51867;DHT22;52862;52.504;13.480;2024-01-06T10:15:55;1.10;99.90
51867;DHT22;52862;52.504;13.480;2024-01-06T10:18:21;0.70;99.90
51867;DHT22;52862;52.504;13.480;2024-01-06T10:20:50;1.00;99.90
51867;DHT22;52862;52.504;13.480;2024-01-06T10:23:18;1.10;99.90
51867;DHT22;52862;52.504;13.480;2024-01-06T10:25:45;1.10;99.90
51867;DHT22;52862;52.504;13.480;2024-01-06T10:28:11;1.00;99.90
51867;DHT22;52862;52.504;13.480;2024-01-06T10:30:39;0.90;99.90
51867;DHT22;52862;52.504;13.480;2024-01-06T10:33:09;0.90;99.90
51867;DHT22;52862;52.504;13.480;2024-01-06T10:35:36;0.90;99.90
51867;DHT22;52862;52.504;13.480;2024-01-06T10:38:03;0.90;99.90
51867;DHT22;52862;52.504;13.480;2024-01-06T10:40:31;0.90;99.90
51867;DHT22;52862;52.504;13.480;2024-01-06T10:42:59;0.90;99.90
51867;DHT22;52862;52.504;13.480;2024-01-06T10:45:28;1.00;99.90
51867;DHT22;52862;52.504;13.480;2024-01-06T10:47:55;1.00;99.90
51867;DHT22;52862;52.504;13.480;2024-01-06T10:50:23;1.20;99.90
51867;DHT22;52862;52.504;13.480;2024-01-06T10:52:50;1.20;99.90
51867;DHT22;52862;52.504;13.480;2024-01-06T10:55:19;1.20;99.90
51867;DHT22;52862;52.504;13.480;2024-01-06T10:57:48;1.20;99.90
51867;DHT22;52862;52.504;13.480;2024-01-06T11:00:18;1.20;99.90
51867;DHT22;52862;52.504;13.480;2024-01-06T11:02:44;1.10;99.90
51867;DHT22;52862;52.504;13.480;2024-01-06T11:05:13;-0.50;99.90
51867;DHT22;52862;52.504;13.480;2024-01-06T11:07:41;1.20;99.90
51867;DHT22;52862;52.504;13.480;2024-01-06T11:10:13;1.10;99.90
51867;DHT22;52862;52.504;13.480;2024-01-06T11:12:42;1.10;99.90
51867;DHT22;52862;52.504;13.480;2024-01-06T11:15:09;1.20;99.90
51867;DHT22;52862;52.504;13.480;2024-01-06T11:17:52;1.20;99.90
51867;DHT22;52862;52.504;13.480;2024-01-06T11:20:20;1.30;99.90
51867;DHT22;52862;52.504;13.480;2024-01-06T11:22:47;1.00;99.90
51867;DHT22;52862;52.504;13.480;2024-01-06T11:25:16;1.30;99.90
51867;DHT22;52862;52.504;13.480;2024-01-06T11:27:43;1.30;99.90
51867;DHT22;52862;52.504;13.480;2024-01-06T11:30:20;1.30;99.90
51867;DHT22;52862;52.504;13.480;2024-01-06T11:32:47;1.30;99.90
51867;DHT22;52862;52.504;13.480;2024-01-06T11:35:15;1.00;99.90
51867;DHT22;52862;52.504;13.480;2024-01-06T11:37:56;1.30;99.90
51867;DHT22;52862;52.504;13.480;2024-01-06T11:40:32;1.20;99.90
51867;DHT22;52862;52.504;13.480;2024-01-06T11:43:02;1.30;99.90
51867;DHT22;52862;52.504;13.480;2024-01-06T11:45:30;1.20;99.90
51867;DHT22;52862;52.504;13.480;2024-01-06T11:50:27;0.90;99.90
51867;DHT22;52862;52.504;13.480;2024-01-06T11:52:57;1.40;99.90
51867;DHT22;52862;52.504;13.480;2024-01-06T11:55:24;1.30;99.90
51867;DHT22;52862;52.504;13.480;2024-01-06T11:57:54;0.70;99.90
51867;DHT22;52862;52.504;13.480;2024-01-06T12:00:22;1.60;99.90
51867;DHT22;52862;52.504;13.480;2024-01-06T12:02:51;1.20;99.90
51867;DHT22;52862;52.504;13.480;2024-01-06T12:05:22;1.20;99.90
51867;DHT22;52862;52.504;13.480;2024-01-06T12:07:54;1.20;99.90
51867;DHT22;52862;52.504;13.480;2024-01-06T12:10:21;1.20;99.90
51867;DHT22;52862;52.504;13.480;2024-01-06T12:12:56;1.30;99.90
51867;DHT22;52862;52.504;13.480;2024-01-06T12:15:24;1.20;99.90
51867;DHT22;52862;52.504;13.480;2024-01-06T12:17:52;1.20;99.90
51867;DHT22;52862;52.504;13.480;2024-01-06T12:20:21;1.00;99.90
51867;DHT22;52862;52.504;13.480;2024-01-06T12:22:48;0.80;99.90
51867;DHT22;52862;52.504;13.480;2024-01-06T12:25:15;0.80;99.90
51867;DHT22;52862;52.504;13.480;2024-01-06T12:27:43;1.00;99.90
51867;DHT22;52862;52.504;13.480;2024-01-06T12:30:13;1.10;99.90
51867;DHT22;52862;52.504;13.480;2024-01-06T12:32:44;1.10;99.90
51867;DHT22;52862;52.504;13.480;2024-01-06T12:35:12;1.30;99.90
51867;DHT22;52862;52.504;13.480;2024-01-06T12:37:42;1.10;99.90
51867;DHT22;52862;52.504;13.480;2024-01-06T12:40:12;1.10;99.90
51867;DHT22;52862;52.504;13.480;2024-01-06T12:42:39;1.00;99.90
51867;DHT22;52862;52.504;13.480;2024-01-06T12:45:07;0.90;99.90
51867;DHT22;52862;52.504;13.480;2024-01-06T12:47:34;0.90;99.90
51867;DHT22;52862;52.504;13.480;2024-01-06T12:50:01;0.80;99.90
51867;DHT22;52862;52.504;13.480;2024-01-06T12:52:29;1.00;99.90
51867;DHT22;52862;52.504;13.480;2024-01-06T12:54:56;1.00;99.90
51867;DHT22;52862;52.504;13.480;2024-01-06T12:57:23;1.00;99.90
51867;DHT22;52862;52.504;13.480;2024-01-06T12:59:50;1.10;99.90
51867;DHT22;52862;52.504;13.480;2024-01-06T13:02:17;1.10;99.90
51867;DHT22;52862;52.504;13.480;2024-01-06T13:04:43;1.10;99.90
51867;DHT22;52862;52.504;13.480;2024-01-06T13:07:10;1.40;99.90
51867;DHT22;52862;52.504;13.480;2024-01-06T13:09:39;1.40;99.90
51867;DHT22;52862;52.504;13.480;2024-01-06T13:12:06;1.00;99.90
51867;DHT22;52862;52.504;13.480;2024-01-06T13:14:33;1.20;99.90
51867;DHT22;52862;52.504;13.480;2024-01-06T13:17:00;1.40;99.90
51867;DHT22;52862;52.504;13.480;2024-01-06T13:19:27;1.70;99.90
51867;DHT22;52862;52.504;13.480;2024-01-06T13:21:54;1.20;99.90
51867;DHT22;52862;52.504;13.480;2024-01-06T13:24:22;1.10;99.90
51867;DHT22;52862;52.504;13.480;2024-01-06T13:26:49;1.30;99.90
51867;DHT22;52862;52.504;13.480;2024-01-06T13:29:16;0.90;99.90
51867;DHT22;52862;52.504;13.480;2024-01-06T13:31:44;1.00;99.90
51867;DHT22;52862;52.504;13.480;2024-01-06T13:34:11;1.00;99.90
51867;DHT22;52862;52.504;13.480;2024-01-06T13:36:38;1.10;99.90
51867;DHT22;52862;52.504;13.480;2024-01-06T13:39:05;1.20;99.90
51867;DHT22;52862;52.504;13.480;2024-01-06T13:41:32;1.10;99.90
51867;DHT22;52862;52.504;13.480;2024-01-06T13:44:00;1.20;99.90
51867;DHT22;52862;52.504;13.480;2024-01-06T13:46:27;1.20;99.90
51867;DHT22;52862;52.504;13.480;2024-01-06T13:48:54;1.20;99.90
51867;DHT22;52862;52.504;13.480;2024-01-06T13:51:20;1.30;99.90
51867;DHT22;52862;52.504;13.480;2024-01-06T13:53:48;1.00;99.90
51867;DHT22;52862;52.504;13.480;2024-01-06T13:56:15;3.60;99.90
51867;DHT22;52862;52.504;13.480;2024-01-06T13:58:41;0.90;99.90
51867;DHT22;52862;52.504;13.480;2024-01-06T14:01:09;0.80;99.90
51867;DHT22;52862;52.504;13.480;2024-01-06T14:03:37;0.80;99.90
51867;DHT22;52862;52.504;13.480;2024-01-06T14:06:07;1.40;99.90
51867;DHT22;52862;52.504;13.480;2024-01-06T14:08:33;1.00;99.90
51867;DHT22;52862;52.504;13.480;2024-01-06T14:11:00;1.00;99.90
51867;DHT22;52862;52.504;13.480;2024-01-06T14:13:27;1.00;99.90
51867;DHT22;52862;52.504;13.480;2024-01-06T14:15:58;1.00;99.90
51867;DHT22;52862;52.504;13.480;2024-01-06T14:18:25;0.70;99.90
51867;DHT22;52862;52.504;13.480;2024-01-06T14:20:53;0.70;99.90
51867;DHT22;52862;52.504;13.480;2024-01-06T14:23:21;1.10;99.90
51867;DHT22;52862;52.504;13.480;2024-01-06T14:25:50;0.80;99.90
51867;DHT22;52862;52.504;13.480;2024-01-06T14:28:17;0.60;99.90
51867;DHT22;52862;52.504;13.480;2024-01-06T14:30:43;0.60;99.90
51867;DHT22;52862;52.504;13.480;2024-01-06T14:33:10;0.70;99.90
51867;DHT22;52862;52.504;13.480;2024-01-06T14:35:38;0.80;99.90
51867;DHT22;52862;52.504;13.480;2024-01-06T14:38:05;0.70;99.90
51867;DHT22;52862;52.504;13.480;2024-01-06T14:40:32;0.50;99.90
51867;DHT22;52862;52.504;13.480;2024-01-06T14:42:59;0.70;99.90
51867;DHT22;52862;52.504;13.480;2024-01-06T14:45:28;0.80;99.90
51867;DHT22;52862;52.504;13.480;2024-01-06T14:47:55;0.80;99.90
51867;DHT22;52862;52.504;13.480;2024-01-06T14:50:22;0.80;99.90
51867;DHT22;52862;52.504;13.480;2024-01-06T14:52:50;0.90;99.90
51867;DHT22;52862;52.504;13.480;2024-01-06T14:55:17;0.80;99.90
51867;DHT22;52862;52.504;13.480;2024-01-06T14:57:44;0.80;99.90
51867;DHT22;52862;52.504;13.480;2024-01-06T15:00:12;0.90;99.90
51867;DHT22;52862;52.504;13.480;2024-01-06T15:02:39;0.90;99.90
51867;DHT22;52862;52.504;13.480;2024-01-06T15:05:07;0.90;99.90
51867;DHT22;52862;52.504;13.480;2024-01-06T15:07:34;1.00;99.90
51867;DHT22;52862;52.504;13.480;2024-01-06T15:10:02;0.80;99.90
51867;DHT22;52862;52.504;13.480;2024-01-06T15:12:31;0.90;99.90
51867;DHT22;52862;52.504;13.480;2024-01-06T15:14:58;0.90;99.90
51867;DHT22;52862;52.504;13.480;2024-01-06T15:17:25;0.90;99.90
51867;DHT22;52862;52.504;13.480;2024-01-06T15:19:52;0.80;99.90
51867;DHT22;52862;52.504;13.480;2024-01-06T15:22:19;0.80;99.90
51867;DHT22;52862;52.504;13.480;2024-01-06T15:24:46;0.80;99.90
51867;DHT22;52862;52.504;13.480;2024-01-06T15:27:24;0.70;99.90
51867;DHT22;52862;52.504;13.480;2024-01-06T15:29:52;1.40;99.90
51867;DHT22;52862;52.504;13.480;2024-01-06T15:32:18;1.30;99.90
51867;DHT22;52862;52.504;13.480;2024-01-06T15:34:45;0.80;99.90